Time;durP1;ratioP1;P1;durP2;ratioP2;P2;SDS_P1;SDS_P2;PMS_P1;PMS_P2;Temp;Humidity;BMP_temperature;BMP_pressure;BME280_temperature;BME280_humidity;BME280_pressure;Samples;Min_cycle;Max_cycle;Signal;HPM_P1;HPM_P2
2022/06/14 00:03:01;;;;;;;13.38;4.65;;;;;;;;;;5033689;28;20053;-69
2022/06/14 00:05:26;;;;;;;13.23;3.97;;;12.30;99.90;;;;;;5033652;28;20479;-68
2022/06/14 00:07:52;;;;;;;12.63;3.60;;;12.30;99.90;;;;;;5033645;28;20068;-68
2022/06/14 00:10:18;;;;;;;11.85;4.65;;;12.10;99.90;;;;;;5033370;28;20479;-68
2022/06/14 00:12:44;;;;;;;10.43;3.67;;;;;;;;;;5037576;28;20037;-68
2022/06/14 00:15:10;;;;;;;13.27;3.58;;;;;;;;;;5037342;28;20037;-68
2022/06/14 00:17:36;;;;;;;8.80;3.35;;;;;;;;;;5037227;28;20056;-69
2022/06/14 00:20:02;;;;;;;7.72;3.70;;;;;;;;;;5020340;28;20410;-68
2022/06/14 00:22:28;;;;;;;10.05;3.40;;;11.90;99.90;;;;;;5020759;28;20047;-68
2022/06/14 00:24:55;;;;;;;11.88;3.53;;;12.00;99.90;;;;;;5037477;28;20041;-68
2022/06/14 00:27:21;;;;;;;13.27;3.97;;;11.90;99.90;;;;;;5037298;28;20041;-68
2022/06/14 00:29:47;;;;;;;7.85;2.90;;;11.90;99.90;;;;;;5036440;28;20094;-68
2022/06/14 00:32:12;;;;;;;8.02;3.10;;;11.80;99.90;;;;;;5036957;28;20043;-69
2022/06/14 00:34:38;;;;;;;7.75;3.67;;;;;;;;;;5037330;28;20036;-68
2022/06/14 00:37:04;;;;;;;12.13;3.67;;;11.70;99.90;;;;;;5037117;28;20068;-68
2022/06/14 00:39:30;;;;;;;9.02;3.20;;;11.80;99.90;;;;;;5036233;28;20073;-68
2022/06/14 00:41:56;;;;;;;9.43;3.83;;;11.60;99.90;;;;;;5036976;28;20037;-68
2022/06/14 00:44:26;;;;;;;10.70;2.97;;;11.70;99.90;;;;;;5020335;28;20133;-68
2022/06/14 00:47:08;;;;;;;10.18;3.75;;;11.60;99.90;;;;;;5020008;28;20132;-68
2022/06/14 00:49:53;;;;;;;15.18;4.13;;;11.70;99.90;;;;;;5019477;28;20037;-68
2022/06/14 00:52:36;;;;;;;10.20;3.88;;;11.40;99.90;;;;;;5036871;28;20037;-68
2022/06/14 00:55:09;;;;;;;9.90;3.13;;;11.60;99.90;;;;;;5020477;28;20044;-68
2022/06/14 00:57:47;;;;;;;11.25;4.18;;;11.50;99.90;;;;;;5036588;28;20041;-68
2022/06/14 01:00:28;;;;;;;14.27;3.17;;;11.80;99.90;;;;;;5036024;28;20056;-68
2022/06/14 01:02:57;;;;;;;6.43;2.95;;;11.30;99.90;;;;;;5020054;28;20060;-69
2022/06/14 01:06:05;;;;;;;10.15;3.58;;;11.40;99.90;;;;;;5054203;28;20037;-69
2022/06/14 01:08:20;;;;;;;8.60;3.42;;;11.50;99.90;;;;;;5036365;28;20045;-68
2022/06/14 01:10:47;;;;;;;13.40;3.92;;;11.60;99.90;;;;;;5035783;28;20108;-68
2022/06/14 01:13:16;;;;;;;12.60;3.90;;;11.20;99.90;;;;;;5020057;28;20170;-68
2022/06/14 01:15:42;;;;;;;9.88;4.13;;;11.00;99.90;;;;;;5036188;28;20120;-69
2022/06/14 01:18:12;;;;;;;9.55;3.45;;;11.40;99.90;;;;;;5036185;28;20645;-68
2022/06/14 01:20:38;;;;;;;10.38;4.25;;;11.30;99.90;;;;;;5035641;28;20056;-69
2022/06/14 01:23:05;;;;;;;16.20;3.58;;;;;;;;;;5036306;28;20032;-69
2022/06/14 01:25:35;;;;;;;6.00;3.10;;;11.40;99.90;;;;;;5019768;28;20111;-68
2022/06/14 01:28:02;;;;;;;5.60;2.83;;;11.10;99.90;;;;;;5019407;28;20128;-68
2022/06/14 01:30:32;;;;;;;11.35;3.20;;;11.10;99.90;;;;;;5018527;28;20465;-69
2022/06/14 01:33:13;;;;;;;10.30;3.35;;;11.00;99.90;;;;;;5019405;28;20041;-68
2022/06/14 01:35:42;;;;;;;11.45;4.13;;;11.00;99.90;;;;;;5036212;28;20059;-68
2022/06/14 01:38:13;;;;;;;9.52;3.60;;;11.00;99.90;;;;;;5019541;28;20083;-68
2022/06/14 01:41:08;;;;;;;7.47;3.03;;;11.00;99.90;;;;;;5018522;28;20037;-68
2022/06/14 01:44:01;;;;;;;8.20;3.58;;;10.90;99.90;;;;;;5019204;28;20098;-69
2022/06/14 01:46:30;;;;;;;8.65;3.08;;;10.90;99.90;;;;;;5053554;28;20037;-68
2022/06/14 01:52:02;;;;;;;9.43;3.25;;;10.80;99.90;;;;;;5054729;28;20098;-69
2022/06/14 01:54:52;;;;;;;8.05;3.30;;;10.90;99.90;;;;;;5019106;28;20044;-69
2022/06/14 01:57:46;;;;;;;9.48;3.75;;;10.70;99.90;;;;;;5035461;28;20446;-69
2022/06/14 02:00:37;;;;;;;9.55;3.55;;;10.70;99.90;;;;;;5018559;28;20049;-72
2022/06/14 02:06:39;;;;;;;11.90;3.10;;;10.80;99.90;;;;;;5053076;28;20491;-69
2022/06/14 02:09:23;;;;;;;12.35;4.40;;;10.80;99.90;;;;;;5034934;28;20110;-69
2022/06/14 02:11:49;;;;;;;10.10;4.10;;;10.70;99.90;;;;;;5035387;28;20037;-69
2022/06/14 02:14:21;;;;;;;10.27;3.28;;;10.60;99.90;;;;;;5018616;28;20052;-69
2022/06/14 02:16:59;;;;;;;7.93;3.28;;;10.70;99.90;;;;;;5035322;28;20406;-69
2022/06/14 02:19:59;;;;;;;8.55;3.53;;;10.70;99.90;;;;;;5034440;28;20498;-69
2022/06/14 02:22:35;;;;;;;12.38;3.75;;;10.90;99.90;;;;;;5018401;28;20097;-69
2022/06/14 02:25:07;;;;;;;8.85;3.08;;;10.80;99.90;;;;;;5018598;28;20498;-69
2022/06/14 02:28:01;;;;;;;8.45;3.30;;;10.60;99.90;;;;;;5035122;28;20145;-69
2022/06/14 02:30:42;;;;;;;9.88;4.05;;;10.90;99.90;;;;;;5017783;28;20068;-69
2022/06/14 02:33:14;;;;;;;6.28;2.90;;;10.60;99.90;;;;;;5018115;28;20051;-69
2022/06/14 02:35:58;;;;;;;10.63;3.50;;;10.80;99.90;;;;;;5034905;28;20407;-69
2022/06/14 02:38:29;;;;;;;7.88;3.70;;;10.80;99.90;;;;;;5035038;28;20041;-69
2022/06/14 02:41:10;;;;;;;10.00;3.60;;;10.80;99.90;;;;;;5017502;28;20073;-69
2022/06/14 02:43:43;;;;;;;12.25;3.75;;;10.60;99.90;;;;;;5034820;28;20033;-70
2022/06/14 02:46:18;;;;;;;7.30;3.97;;;10.80;99.90;;;;;;5034468;28;20540;-69
2022/06/14 02:48:56;;;;;;;13.77;3.67;;;10.70;99.90;;;;;;5034646;28;20029;-69
2022/06/14 02:51:32;;;;;;;11.18;3.42;;;10.90;99.90;;;;;;5034425;28;20053;-69
2022/06/14 02:54:01;;;;;;;13.90;3.45;;;10.70;99.90;;;;;;5034532;28;20079;-69
2022/06/14 02:56:39;;;;;;;9.52;3.70;;;10.60;99.90;;;;;;5017866;28;20032;-69
2022/06/14 02:59:31;;;;;;;16.35;3.90;;;10.80;99.90;;;;;;5017336;28;20052;-71
2022/06/14 03:02:06;;;;;;;11.77;4.10;;;10.60;99.90;;;;;;4991199;28;20055;-71
2022/06/14 03:04:44;;;;;;;10.05;3.35;;;10.80;99.90;;;;;;5017714;28;20502;-71
2022/06/14 03:07:27;;;;;;;12.20;3.40;;;10.60;99.90;;;;;;5034415;28;20127;-71
2022/06/14 03:09:53;;;;;;;8.73;3.30;;;10.70;99.90;;;;;;5016961;28;20036;-71
2022/06/14 03:12:40;;;;;;;9.98;3.60;;;10.80;99.90;;;;;;5017696;28;20531;-71
2022/06/14 03:15:35;;;;;;;13.30;5.18;;;10.60;99.90;;;;;;5034270;28;20501;-71
2022/06/14 03:18:22;;;;;;;8.05;3.58;;;10.50;99.90;;;;;;4968194;28;20055;-71
2022/06/14 03:21:03;;;;;;;6.72;3.15;;;10.50;99.90;;;;;;5033209;28;20054;-72
2022/06/14 03:23:43;;;;;;;8.45;3.55;;;10.80;99.90;;;;;;5017863;28;20510;-72
2022/06/14 03:26:50;;;;;;;7.30;3.80;;;10.80;99.90;;;;;;5017359;28;20037;-71
2022/06/14 03:29:29;;;;;;;7.47;3.38;;;10.50;99.90;;;;;;4918611;29;20050;-71
2022/06/14 03:32:07;;;;;;;7.40;3.50;;;10.60;99.90;;;;;;4935587;29;20053;-71
2022/06/14 03:34:46;;;;;;;8.23;3.20;;;10.40;99.90;;;;;;4982532;28;20060;-71
2022/06/14 03:37:12;;;;;;;7.70;3.35;;;;;;;;;;5017342;28;20041;-71
2022/06/14 03:39:44;;;;;;;9.50;3.33;;;10.50;99.90;;;;;;5016521;28;20044;-71
2022/06/14 03:42:11;;;;;;;10.27;3.38;;;10.60;99.90;;;;;;5017602;28;20048;-71
2022/06/14 03:44:38;;;;;;;13.73;4.63;;;10.60;99.90;;;;;;5033481;28;20048;-72
2022/06/14 03:47:09;;;;;;;5.18;3.38;;;10.70;99.90;;;;;;5016780;28;20048;-72
2022/06/14 03:49:38;;;;;;;9.00;3.28;;;10.50;99.90;;;;;;5033038;28;20410;-71
2022/06/14 03:52:13;;;;;;;5.07;3.20;;;10.60;99.90;;;;;;5017035;28;20045;-71
2022/06/14 03:54:39;;;;;;;14.38;3.88;;;;;;;;;;5033945;28;20368;-71
2022/06/14 03:57:20;;;;;;;7.15;3.95;;;10.60;99.90;;;;;;5033720;28;20037;-69
2022/06/14 04:00:25;;;;;;;12.00;3.50;;;10.70;99.90;;;;;;5033008;28;20068;-69
2022/06/14 04:03:24;;;;;;;8.43;3.40;;;10.60;99.90;;;;;;5033860;28;20080;-69
2022/06/14 04:05:53;;;;;;;7.88;3.55;;;10.80;99.90;;;;;;5012358;28;20057;-69
2022/06/14 04:08:52;;;;;;;9.43;3.78;;;10.60;99.90;;;;;;5016989;28;20041;-69
2022/06/14 04:11:18;;;;;;;10.55;4.15;;;10.60;99.90;;;;;;5016873;28;20406;-69
2022/06/14 04:14:19;;;;;;;10.13;3.33;;;10.60;99.90;;;;;;5033571;28;20040;-69
2022/06/14 04:17:08;;;;;;;6.35;3.40;;;10.80;99.90;;;;;;5017201;28;20064;-69
2022/06/14 04:19:42;;;;;;;10.07;3.50;;;10.70;99.90;;;;;;5032956;28;20076;-69
2022/06/14 04:22:36;;;;;;;9.88;3.60;;;10.90;99.90;;;;;;5016969;28;20127;-69
2022/06/14 04:25:12;;;;;;;7.43;3.70;;;10.90;99.90;;;;;;5017508;28;20443;-70
2022/06/14 04:27:58;;;;;;;9.43;4.00;;;10.80;99.90;;;;;;5033487;28;20038;-69
2022/06/14 04:30:49;;;;;;;8.80;3.78;;;11.00;99.90;;;;;;5032990;28;20036;-70
2022/06/14 04:33:25;;;;;;;8.85;3.78;;;11.10;99.90;;;;;;5017011;28;20414;-70
2022/06/14 04:36:00;;;;;;;11.77;3.95;;;11.00;99.90;;;;;;5033155;28;20033;-69
2022/06/14 04:38:31;;;;;;;6.97;3.47;;;11.40;99.90;;;;;;5016982;28;20037;-69
2022/06/14 04:41:03;;;;;;;11.00;4.45;;;11.90;99.90;;;;;;5032715;28;20036;-69
2022/06/14 04:43:39;;;;;;;9.80;4.13;;;11.30;99.90;;;;;;5017034;28;20068;-69
2022/06/14 04:46:14;;;;;;;10.60;3.75;;;11.50;99.90;;;;;;5017025;28;20041;-69
2022/06/14 04:48:50;;;;;;;8.40;3.10;;;11.60;99.90;;;;;;5017116;28;20037;-69
2022/06/14 04:51:22;;;;;;;8.98;4.03;;;11.90;99.90;;;;;;5033064;28;20040;-69
2022/06/14 04:54:01;;;;;;;8.07;3.72;;;11.70;99.90;;;;;;5016878;28;20069;-70
2022/06/14 04:56:37;;;;;;;10.60;3.30;;;11.80;99.90;;;;;;5017529;28;20037;-69
2022/06/14 04:59:06;;;;;;;11.15;3.65;;;;;;;;;;5036174;28;20066;-69
2022/06/14 05:01:40;;;;;;;12.10;3.72;;;12.00;99.90;;;;;;5036512;28;20433;-69
2022/06/14 05:04:32;;;;;;;8.32;3.85;;;12.40;99.90;;;;;;5020348;28;20045;-69
2022/06/14 05:07:05;;;;;;;8.55;2.92;;;12.40;99.90;;;;;;5019829;28;20043;-69
2022/06/14 05:09:40;;;;;;;6.10;2.70;;;12.30;99.90;;;;;;5035822;28;20032;-69
2022/06/14 05:12:28;;;;;;;8.52;3.40;;;12.50;99.90;;;;;;5036491;28;20037;-69
2022/06/14 05:15:02;;;;;;;7.45;2.95;;;12.60;99.90;;;;;;5036516;28;20059;-69
2022/06/14 05:17:36;;;;;;;10.10;3.72;;;13.00;99.90;;;;;;5036236;28;20047;-69
2022/06/14 05:20:19;;;;;;;8.23;2.75;;;12.80;99.90;;;;;;5035822;28;20048;-69
2022/06/14 05:22:45;;;;;;;8.73;3.22;;;12.90;99.90;;;;;;5035690;28;20040;-70
2022/06/14 05:25:12;;;;;;;6.75;2.88;;;12.90;99.90;;;;;;5032098;28;20053;-69
2022/06/14 05:27:58;;;;;;;8.25;3.08;;;13.00;99.90;;;;;;5033098;28;20069;-69
2022/06/14 05:30:24;;;;;;;11.00;2.97;;;12.90;99.90;;;;;;5030601;28;20037;-69
2022/06/14 05:32:58;;;;;;;8.65;2.95;;;13.00;99.90;;;;;;5032775;28;20052;-70
2022/06/14 05:35:38;;;;;;;11.38;2.92;;;13.20;99.90;;;;;;5016443;28;20092;-69
2022/06/14 05:38:32;;;;;;;11.07;4.72;;;13.30;99.90;;;;;;5016415;28;20067;-71
2022/06/14 05:41:05;;;;;;;8.75;3.00;;;13.30;99.90;;;;;;5033604;28;20129;-69
2022/06/14 05:43:37;;;;;;;7.05;3.25;;;13.30;99.90;;;;;;5015689;28;20044;-69
2022/06/14 05:46:32;;;;;;;9.40;3.27;;;13.50;99.90;;;;;;5017609;28;20036;-70
2022/06/14 05:49:04;;;;;;;5.55;2.83;;;13.50;99.90;;;;;;5015354;28;20299;-69
2022/06/14 05:51:53;;;;;;;9.48;3.22;;;13.80;99.90;;;;;;5052048;28;20067;-70
2022/06/14 05:54:29;;;;;;;11.07;3.72;;;13.80;99.90;;;;;;5008158;28;20041;-69
2022/06/14 05:57:26;;;;;;;11.85;3.25;;;13.80;99.90;;;;;;5019600;28;20053;-70
2022/06/14 06:00:16;;;;;;;10.95;2.75;;;14.00;99.90;;;;;;5030477;28;20079;-69
2022/06/14 06:02:51;;;;;;;8.52;2.67;;;13.90;99.90;;;;;;5011351;28;20051;-69
2022/06/14 06:05:26;;;;;;;12.50;2.95;;;14.10;99.90;;;;;;5031776;28;20033;-70
2022/06/14 06:08:04;;;;;;;11.00;2.75;;;14.30;99.90;;;;;;5042477;28;20055;-69
2022/06/14 06:10:34;;;;;;;12.75;3.05;;;14.30;99.90;;;;;;5008639;28;20507;-70
2022/06/14 06:13:08;;;;;;;8.45;2.47;;;14.40;99.90;;;;;;5010207;28;20041;-70
2022/06/14 06:15:57;;;;;;;7.72;2.25;;;14.30;99.90;;;;;;5024599;28;20033;-72
2022/06/14 06:18:40;;;;;;;10.90;2.30;;;14.60;99.90;;;;;;5002129;28;20173;-70
2022/06/14 06:21:19;;;;;;;5.13;1.70;;;14.70;99.90;;;;;;5009932;28;20572;-70
2022/06/14 06:24:16;;;;;;;8.48;1.77;;;14.70;99.90;;;;;;5033044;28;20048;-70
2022/06/14 06:26:44;;;;;;;6.47;1.85;;;14.80;99.90;;;;;;5009992;28;20055;-70
2022/06/14 06:29:52;;;;;;;9.70;2.15;;;14.90;99.90;;;;;;5038025;28;20037;-70
2022/06/14 06:32:19;;;;;;;5.72;2.13;;;15.00;99.90;;;;;;5009748;28;20507;-70
2022/06/14 06:34:46;;;;;;;20.35;3.03;;;15.10;99.90;;;;;;5014561;28;20036;-70
2022/06/14 06:37:37;;;;;;;9.00;2.78;;;15.20;99.90;;;;;;5013157;28;20029;-70
2022/06/14 06:40:10;;;;;;;6.60;1.85;;;15.30;99.90;;;;;;5022734;28;20049;-70
2022/06/14 06:42:46;;;;;;;9.25;2.33;;;15.30;99.90;;;;;;5031760;28;20103;-69
2022/06/14 06:45:25;;;;;;;7.43;2.55;;;15.40;99.90;;;;;;5029998;28;20099;-70
2022/06/14 06:47:58;;;;;;;5.20;2.20;;;15.60;99.90;;;;;;5030097;28;20053;-70
2022/06/14 06:50:57;;;;;;;5.32;2.38;;;15.60;99.90;;;;;;5030406;28;20140;-69
2022/06/14 06:53:25;;;;;;;7.40;2.10;;;;;;;;;;5014337;28;20068;-69
2022/06/14 06:55:51;;;;;;;10.57;2.00;;;15.80;99.90;;;;;;5031239;28;20044;-69
2022/06/14 06:58:26;;;;;;;7.35;2.10;;;;;;;;;;5032019;28;20029;-69
2022/06/14 07:00:57;;;;;;;8.57;1.65;;;16.30;99.90;;;;;;5025701;28;20437;-70
2022/06/14 07:03:48;;;;;;;3.33;1.23;;;16.00;99.90;;;;;;5017576;28;20036;-70
2022/06/14 07:06:27;;;;;;;8.55;1.55;;;15.70;99.90;;;;;;5017548;28;20060;-70
2022/06/14 07:08:58;;;;;;;9.10;2.20;;;15.80;99.90;;;;;;5017429;28;20033;-69
2022/06/14 07:11:31;;;;;;;6.72;2.05;;;16.00;99.90;;;;;;5015242;28;20452;-69
2022/06/14 07:14:02;;;;;;;;;;;16.20;99.90;;;;;;5034250;28;20491;-70
2022/06/14 07:16:47;;;;;;;4.88;1.63;;;16.00;99.90;;;;;;5033713;28;20386;-70
2022/06/14 07:19:40;;;;;;;5.85;1.70;;;16.40;99.90;;;;;;5016573;28;20540;-70
2022/06/14 07:22:24;;;;;;;6.43;2.13;;;16.30;99.90;;;;;;5017228;28;20495;-71
2022/06/14 07:24:52;;;;;;;8.50;1.33;;;16.30;99.90;;;;;;5034032;28;20041;-70
2022/06/14 07:27:21;;;;;;;7.35;1.67;;;16.50;99.90;;;;;;5017587;28;20041;-70
2022/06/14 07:29:54;;;;;;;5.20;1.20;;;16.50;99.90;;;;;;5016515;28;20048;-70
2022/06/14 07:32:27;;;;;;;4.97;1.27;;;16.40;99.90;;;;;;5033532;28;20040;-71
2022/06/14 07:34:53;;;;;;;;;;;16.30;99.90;;;;;;5034253;28;20483;-71
2022/06/14 07:37:42;;;;;;;4.18;1.55;;;16.40;99.90;;;;;;5016916;28;19923;-71
2022/06/14 07:40:39;;;;;;;6.03;1.88;;;16.70;99.90;;;;;;5032402;28;20116;-72
2022/06/14 07:43:23;;;;;;;2.70;1.48;;;16.90;99.90;;;;;;5008137;28;20041;-71
2022/06/14 07:45:50;;;;;;;5.18;2.03;;;17.20;99.90;;;;;;5013739;28;20069;-71
2022/06/14 07:48:22;;;;;;;2.42;1.42;;;16.90;99.90;;;;;;5033242;28;20126;-71
2022/06/14 07:50:59;;;;;;;9.77;2.03;;;17.10;99.90;;;;;;5036066;22;20151;-70
2022/06/14 07:53:31;;;;;;;2.08;1.27;;;17.20;99.90;;;;;;5013637;28;20040;-70
2022/06/14 07:56:06;;;;;;;3.25;1.35;;;17.40;99.90;;;;;;5039919;28;20120;-70
2022/06/14 07:58:47;;;;;;;4.13;1.55;;;17.40;99.90;;;;;;5017154;28;20033;-70
2022/06/14 08:01:24;;;;;;;7.90;1.92;;;17.40;99.90;;;;;;5016179;28;20033;-68
2022/06/14 08:04:00;;;;;;;3.55;1.45;;;17.50;99.90;;;;;;5033057;28;20541;-70
2022/06/14 08:06:28;;;;;;;3.42;1.92;;;17.60;99.90;;;;;;5016583;28;20040;-70
2022/06/14 08:09:06;;;;;;;3.95;1.65;;;17.70;99.90;;;;;;5016310;28;20127;-71
2022/06/14 08:11:42;;;;;;;4.43;1.55;;;17.90;99.90;;;;;;5016381;28;20045;-70
2022/06/14 08:14:15;;;;;;;6.10;1.60;;;18.00;99.90;;;;;;5016862;28;20033;-70
2022/06/14 08:16:43;;;;;;;3.33;1.65;;;19.20;99.90;;;;;;5035905;28;20037;-71
2022/06/14 08:19:20;;;;;;;5.15;1.42;;;18.20;99.90;;;;;;5014285;28;20041;-70
2022/06/14 08:21:51;;;;;;;3.85;1.63;;;18.30;99.90;;;;;;5005476;28;20037;-70
2022/06/14 08:24:21;;;;;;;5.65;1.40;;;18.20;99.90;;;;;;5033000;28;20045;-70
2022/06/14 08:27:03;;;;;;;5.15;1.60;;;18.50;99.90;;;;;;5033067;28;20067;-70
2022/06/14 08:29:53;;;;;;;5.43;2.55;;;18.20;99.90;;;;;;5015421;28;20041;-70
2022/06/14 08:32:33;;;;;;;5.95;1.63;;;18.10;99.90;;;;;;5034763;28;20059;-70
2022/06/14 08:35:05;;;;;;;4.88;1.50;;;18.70;99.90;;;;;;5036724;28;20041;-68
2022/06/14 08:37:53;;;;;;;4.43;1.57;;;18.50;99.90;;;;;;5020298;28;20076;-69
2022/06/14 08:40:21;;;;;;;3.58;1.33;;;19.00;99.90;;;;;;5035454;28;20126;-69
2022/06/14 08:42:56;;;;;;;3.78;1.08;;;17.70;99.90;;;;;;5019908;28;20047;-69
2022/06/14 08:45:39;;;;;;;6.07;1.42;;;17.80;99.90;;;;;;5036195;28;20049;-69
2022/06/14 08:48:25;;;;;;;3.83;1.15;;;17.70;99.90;;;;;;5019852;28;20052;-69
2022/06/14 08:51:09;;;;;;;5.80;1.92;;;17.70;99.90;;;;;;4991313;28;20049;-68
2022/06/14 08:53:40;;;;;;;3.63;1.13;;;17.60;99.90;;;;;;5008507;28;20052;-67
2022/06/14 08:56:24;;;;;;;4.80;1.10;;;17.90;99.90;;;;;;5034750;28;20079;-68
2022/06/14 08:59:46;;;;;;;3.40;1.42;;;17.80;99.90;;;;;;5054251;28;20044;-70
2022/06/14 09:02:15;;;;;;;4.13;1.02;;;18.30;99.90;;;;;;4975884;28;20042;-69
2022/06/14 09:05:09;;;;;;;4.15;1.30;;;18.00;99.90;;;;;;4992286;28;20038;-69
2022/06/14 09:07:59;;;;;;;4.72;1.50;;;18.40;99.90;;;;;;5016770;28;20110;-69
2022/06/14 09:10:42;;;;;;;4.00;1.33;;;18.60;99.90;;;;;;5052841;28;20483;-69
2022/06/14 09:13:26;;;;;;;1.77;1.02;;;18.80;99.90;;;;;;5053840;28;20041;-68
2022/06/14 09:15:54;;;;;;;5.35;1.50;;;18.60;99.90;;;;;;5052570;28;20037;-69
2022/06/14 09:18:19;;;;;;;3.13;1.30;;;18.50;99.90;;;;;;5053644;28;20105;-68
2022/06/14 09:21:25;;;;;;;3.08;0.98;;;18.50;99.90;;;;;;5018366;28;20127;-68
2022/06/14 09:24:11;;;;;;;2.15;1.20;;;18.40;99.90;;;;;;5005535;28;20578;-69
2022/06/14 09:26:45;;;;;;;3.97;1.77;;;18.60;99.90;;;;;;5034524;28;20069;-69
2022/06/14 09:29:28;;;;;;;4.38;1.30;;;19.80;99.90;;;;;;5032944;28;20416;-68
2022/06/14 09:32:09;;;;;;;7.53;2.15;;;18.30;99.90;;;;;;4999481;28;20034;-69
2022/06/14 09:35:06;;;;;;;4.40;1.15;;;18.50;99.90;;;;;;5015735;28;20049;-69
2022/06/14 09:38:02;;;;;;;4.15;1.40;;;18.90;99.90;;;;;;5016010;28;20140;-69
2022/06/14 09:40:49;;;;;;;4.07;1.10;;;18.80;99.90;;;;;;4998574;28;20487;-69
2022/06/14 09:43:42;;;;;;;4.63;1.33;;;18.60;99.90;;;;;;4998194;28;20093;-68
2022/06/14 09:46:19;;;;;;;4.38;1.40;;;18.30;99.90;;;;;;5033437;28;20045;-68
2022/06/14 09:49:04;;;;;;;4.03;1.17;;;18.40;99.90;;;;;;5015219;28;20220;-68
2022/06/14 09:51:47;;;;;;;4.13;1.75;;;16.60;99.90;;;;;;5033248;28;20446;-69
2022/06/14 09:54:40;;;;;;;4.68;1.55;;;18.90;99.90;;;;;;5033181;28;20116;-70
2022/06/14 09:57:24;;;;;;;6.17;1.50;;;18.90;99.90;;;;;;5033462;28;20037;-69
2022/06/14 10:00:07;;;;;;;3.53;1.38;;;19.10;99.90;;;;;;5034527;28;20044;-69
2022/06/14 10:03:00;;;;;;;3.90;1.38;;;20.60;99.90;;;;;;5035052;28;20033;-69
2022/06/14 10:05:29;;;;;;;;;;;18.80;99.90;;;;;;5051287;28;20053;-69
2022/06/14 10:08:31;;;;;;;5.07;1.25;;;18.40;99.90;;;;;;5019614;28;20003;-69
2022/06/14 10:11:04;;;;;;;2.50;1.20;;;18.50;99.90;;;;;;5051360;28;20379;-69
2022/06/14 10:13:43;;;;;;;5.53;1.48;;;18.40;99.90;;;;;;5042172;28;20094;-69
2022/06/14 10:16:39;;;;;;;2.17;1.40;;;18.40;99.90;;;;;;5033281;28;20056;-69
2022/06/14 10:19:35;;;;;;;5.90;1.35;;;18.60;99.90;;;;;;5032650;28;20391;-69
2022/06/14 10:22:25;;;;;;;3.95;1.30;;;18.70;99.90;;;;;;5015237;28;20383;-70
2022/06/14 10:25:10;;;;;;;5.60;1.40;;;18.90;99.90;;;;;;5032556;28;20037;-69
2022/06/14 10:30:50;;;;;;;2.85;1.08;;;19.70;99.90;;;;;;5032811;28;20517;-71
2022/06/14 10:33:33;;;;;;;3.03;1.20;;;19.90;99.90;;;;;;5015091;28;20133;-68
2022/06/14 10:36:14;;;;;;;3.95;1.10;;;19.80;99.90;;;;;;4998679;28;20589;-69
2022/06/14 10:39:01;;;;;;;4.43;1.23;;;20.00;99.90;;;;;;5014395;28;20041;-70
2022/06/14 10:41:38;;;;;;;4.07;0.98;;;20.90;99.90;;;;;;5014196;28;20048;-68
2022/06/14 10:44:12;;;;;;;6.40;2.17;;;20.30;99.90;;;;;;5029703;28;20159;-70
2022/06/14 10:46:45;;;;;;;2.67;1.33;;;19.30;99.90;;;;;;5009138;28;20064;-68
2022/06/14 10:49:33;;;;;;;4.22;1.20;;;18.90;99.90;;;;;;5009539;28;20044;-68
2022/06/14 10:52:43;;;;;;;5.32;1.65;;;18.80;99.90;;;;;;5027568;28;20499;-69
2022/06/14 10:55:35;;;;;;;3.70;1.20;;;18.60;99.90;;;;;;4988710;28;20029;-69
2022/06/14 10:58:22;;;;;;;5.00;1.50;;;18.80;99.90;;;;;;5006160;28;20029;-69
2022/06/14 11:01:20;;;;;;;3.67;1.85;;;18.30;99.90;;;;;;5026955;28;20052;-68
2022/06/14 11:03:57;;;;;;;3.95;1.20;;;18.40;99.90;;;;;;5001391;28;20041;-68
2022/06/14 11:06:59;;;;;;;2.17;1.30;;;18.60;99.90;;;;;;4996482;28;20041;-68
2022/06/14 11:10:08;;;;;;;6.43;1.40;;;18.40;99.90;;;;;;5030682;28;20034;-69
2022/06/14 11:12:34;;;;;;;2.15;1.30;;;18.40;99.90;;;;;;4976456;28;20053;-70
2022/06/14 11:15:26;;;;;;;5.13;1.27;;;19.40;99.90;;;;;;5014390;28;20123;-68
2022/06/14 11:18:01;;;;;;;2.90;1.10;;;18.90;99.90;;;;;;5031765;28;20372;-70
2022/06/14 11:20:26;;;;;;;2.30;1.08;;;19.00;99.90;;;;;;5013121;28;20052;-68
2022/06/14 11:23:04;;;;;;;6.22;1.50;;;18.90;99.90;;;;;;4997503;28;20045;-69
2022/06/14 11:25:45;;;;;;;3.00;1.13;;;18.80;99.90;;;;;;4997205;28;20045;-68
2022/06/14 11:28:39;;;;;;;4.40;1.80;;;19.10;99.90;;;;;;5013637;28;20049;-69
2022/06/14 11:31:31;;;;;;;3.70;1.67;;;19.00;99.90;;;;;;4996429;28;20037;-69
2022/06/14 11:34:26;;;;;;;4.85;1.42;;;19.00;99.90;;;;;;4991403;28;20132;-68
2022/06/14 11:37:10;;;;;;;4.68;1.88;;;19.10;99.90;;;;;;5033268;28;20037;-68
2022/06/14 11:39:52;;;;;;;3.25;1.63;;;19.20;99.90;;;;;;5016203;28;20048;-68
2022/06/14 11:42:28;;;;;;;5.10;1.60;;;19.10;99.90;;;;;;5033305;28;20059;-68
2022/06/14 11:45:15;;;;;;;4.43;1.67;;;19.10;99.90;;;;;;5016747;28;20040;-68
2022/06/14 11:48:24;;;;;;;6.55;1.60;;;19.10;99.90;;;;;;5033561;28;20044;-69
2022/06/14 11:51:07;;;;;;;7.18;2.35;;;19.30;99.90;;;;;;5005600;28;20033;-69
2022/06/14 11:53:56;;;;;;;4.95;1.80;;;19.10;99.90;;;;;;5009254;28;20072;-69
2022/06/14 11:56:33;;;;;;;4.18;1.70;;;19.20;99.90;;;;;;5016753;28;20140;-69
2022/06/14 11:59:05;;;;;;;3.25;1.48;;;19.60;99.90;;;;;;5016307;28;20037;-69
2022/06/14 12:01:43;;;;;;;3.35;1.45;;;19.70;99.90;;;;;;5016403;28;20041;-69
2022/06/14 12:04:26;;;;;;;6.78;1.98;;;19.70;99.90;;;;;;5017789;28;20033;-69
2022/06/14 12:07:13;;;;;;;3.47;1.45;;;19.70;99.90;;;;;;5052777;28;20040;-69
2022/06/14 12:09:56;;;;;;;4.40;1.60;;;19.60;99.90;;;;;;5036636;28;20068;-69
2022/06/14 12:12:35;;;;;;;3.00;1.25;;;19.80;99.90;;;;;;5020260;28;20045;-70
2022/06/14 12:15:46;;;;;;;6.10;1.58;;;19.90;99.90;;;;;;5037230;28;20041;-69
2022/06/14 12:18:16;;;;;;;3.78;1.35;;;19.60;99.90;;;;;;5035829;28;20044;-69
2022/06/14 12:21:00;;;;;;;4.90;1.30;;;19.50;99.90;;;;;;5019542;28;20036;-69
2022/06/14 12:23:49;;;;;;;4.88;1.30;;;19.50;99.90;;;;;;5017177;28;20037;-70
2022/06/14 12:26:36;;;;;;;2.38;1.42;;;19.60;99.90;;;;;;5007449;28;20131;-69
2022/06/14 12:29:17;;;;;;;6.60;1.52;;;19.50;99.90;;;;;;5023481;28;20095;-70
2022/06/14 12:32:17;;;;;;;6.03;1.60;;;19.30;99.90;;;;;;5005209;28;20038;-69
2022/06/14 12:34:50;;;;;;;3.72;1.40;;;19.30;99.70;;;;;;5020178;28;20041;-69
2022/06/14 12:37:48;;;;;;;5.68;1.50;;;19.40;99.90;;;;;;5000926;28;20069;-69
2022/06/14 12:41:02;;;;;;;2.95;1.20;;;19.30;99.90;;;;;;5001115;28;20037;-69
2022/06/14 12:43:49;;;;;;;2.92;1.30;;;19.70;99.90;;;;;;5018045;28;20095;-71
2022/06/14 12:46:21;;;;;;;3.10;1.02;;;19.70;99.90;;;;;;5017144;28;20040;-70
2022/06/14 12:49:06;;;;;;;6.82;1.60;;;19.70;99.90;;;;;;5000804;28;20084;-69
2022/06/14 12:51:46;;;;;;;4.50;1.30;;;19.70;99.60;;;;;;5016511;28;20191;-69
2022/06/14 12:54:23;;;;;;;1.45;1.10;;;19.30;99.90;;;;;;5000337;28;20492;-70
2022/06/14 12:56:58;;;;;;;3.15;1.42;;;19.40;99.90;;;;;;5016221;28;20171;-69
2022/06/14 12:59:48;;;;;;;2.88;1.30;;;19.60;99.90;;;;;;5019017;28;20045;-69
2022/06/14 13:02:28;;;;;;;5.35;1.40;;;19.50;99.80;;;;;;5035790;28;20495;-69
2022/06/14 13:04:58;;;;;;;2.60;1.20;;;19.50;99.80;;;;;;5021624;28;20042;-70
2022/06/14 13:07:32;;;;;;;7.05;1.42;;;19.50;99.90;;;;;;5016527;28;20048;-70
2022/06/14 13:10:28;;;;;;;4.95;1.33;;;19.50;99.90;;;;;;5033362;28;20067;-69
2022/06/14 13:13:25;;;;;;;6.53;1.25;;;19.60;99.60;;;;;;4999823;28;20499;-70
2022/06/14 13:16:26;;;;;;;3.85;1.17;;;19.90;99.70;;;;;;4999781;28;20056;-69
2022/06/14 13:19:01;;;;;;;3.50;1.20;;;19.90;99.90;;;;;;5029975;28;20045;-68
2022/06/14 13:21:46;;;;;;;4.00;1.02;;;19.90;99.90;;;;;;5031826;28;20036;-69
2022/06/14 13:24:31;;;;;;;3.47;1.65;;;20.20;99.90;;;;;;5044329;28;20030;-71
2022/06/14 13:27:19;;;;;;;5.85;3.60;;;20.40;99.70;;;;;;5006979;28;20033;-69
2022/06/14 13:30:11;;;;;;;5.28;2.40;;;20.20;99.50;;;;;;5019792;28;20045;-71
2022/06/14 13:32:54;;;;;;;8.33;2.40;;;20.50;99.50;;;;;;5037059;28;20049;-69
2022/06/14 13:35:39;;;;;;;8.13;2.00;;;20.10;99.20;;;;;;5038517;28;20068;-68
2022/06/14 13:38:14;;;;;;;9.23;2.10;;;20.20;99.00;;;;;;5031978;28;20067;-68
2022/06/14 13:41:25;;;;;;;5.45;1.90;;;20.40;99.90;;;;;;5034578;28;20033;-68
2022/06/14 13:44:12;;;;;;;4.78;1.70;;;20.80;99.90;;;;;;4955971;28;20039;-68
2022/06/14 13:46:55;;;;;;;3.92;1.58;;;21.70;99.20;;;;;;5028336;28;20056;-68
2022/06/14 13:49:29;;;;;;;;;;;21.20;99.00;;;;;;5007647;28;20029;-69
2022/06/14 13:52:04;;;;;;;7.57;2.05;;;21.50;98.50;;;;;;5049277;22;19921;-70
2022/06/14 13:54:49;;;;;;;5.15;1.52;;;21.20;98.90;;;;;;5055274;28;20033;-72
2022/06/14 13:57:37;;;;;;;3.78;1.45;;;21.30;99.00;;;;;;5073209;28;20105;-71
2022/06/14 14:00:16;;;;;;;3.75;1.90;;;21.00;98.40;;;;;;5054825;28;20086;-70
2022/06/14 14:02:56;;;;;;;2.88;1.52;;;20.70;98.50;;;;;;5055381;28;20040;-71
2022/06/14 14:05:35;;;;;;;6.70;2.17;;;20.60;98.80;;;;;;5070399;28;20048;-70
2022/06/14 14:08:28;;;;;;;8.52;2.25;;;20.30;99.00;;;;;;5055398;28;20048;-71